Time;durP1;ratioP1;P1;durP2;ratioP2;P2;SDS_P1;SDS_P2;PMS_P1;PMS_P2;Temp;Humidity;BMP_temperature;BMP_pressure;BME280_temperature;BME280_humidity;BME280_pressure;Samples;Min_cycle;Max_cycle;Signal;HPM_P1;HPM_P2
2023/07/24 10:33:44;;;;;;;7.20;5.20;;;;;;;29.33;45.55;97765.59;102669;1299;600407;-90
2023/07/24 10:36:19;;;;;;;6.50;4.50;;;;;;;29.42;45.24;97749.80;104775;1276;61317;-90
2023/07/24 10:39:14;;;;;;;7.90;5.30;;;;;;;29.52;44.89;97754.05;105454;1272;61054;-90
2023/07/24 10:45:45;;;;;;;7.10;5.10;;;;;;;29.70;43.61;97761.25;104763;1275;75941;-91
2023/07/24 10:48:21;;;;;;;6.60;5.10;;;;;;;29.71;43.59;97753.48;104283;1273;1140323;-94
2023/07/24 10:50:55;;;;;;;5.90;5.00;;;;;;;29.73;43.38;97745.10;104530;1270;61260;-93
2023/07/24 11:00:59;;;;;;;7.50;6.00;;;;;;;29.87;43.03;97724.77;106627;1276;74202;-89
2023/07/24 11:03:49;;;;;;;5.60;5.10;;;;;;;29.95;43.32;97719.88;106268;1276;72778;-93
2023/07/24 11:06:37;;;;;;;8.90;4.60;;;;;;;30.10;43.50;97714.84;104595;1275;61131;-90
2023/07/24 11:09:04;;;;;;;5.70;5.10;;;;;;;30.26;42.97;97724.74;104397;1282;61739;-89
2023/07/24 11:11:37;;;;;;;8.80;6.10;;;;;;;30.42;42.01;97733.59;106709;1273;73388;-91
2023/07/24 11:14:24;;;;;;;7.00;5.20;;;;;;;30.57;41.63;97734.45;107488;1273;74516;-91
2023/07/24 11:18:10;;;;;;;;;;;;;;;;;;;;;
2023/07/24 11:22:05;;;;;;;5.80;5.30;;;;;;;30.77;40.48;97727.44;104568;1284;59685;-92
2023/07/24 11:24:46;;;;;;;;;;;;;;;30.82;40.37;97728.91;104589;1285;61733;-87
2023/07/24 11:27:26;;;;;;;5.80;5.20;;;;;;;30.86;39.77;97716.88;104595;1285;72991;-89
2023/07/24 11:30:33;;;;;;;6.00;5.50;;;;;;;30.94;40.66;97710.02;106276;1272;70563;-91
2023/07/24 11:33:33;;;;;;;7.00;5.40;;;;;;;31.05;39.78;97703.60;105150;1275;73064;-90
2023/07/24 11:43:00;;;;;;;7.10;5.90;;;;;;;31.35;39.96;97702.72;105092;1278;72208;-88
2023/07/24 11:45:31;;;;;;;6.00;5.40;;;;;;;31.46;40.09;97704.08;105044;1273;77393;-88
2023/07/24 11:47:58;;;;;;;5.40;4.90;;;;;;;31.55;39.83;97708.81;104514;1277;72686;-90
2023/07/24 11:50:26;;;;;;;6.40;5.70;;;;;;;31.60;39.78;97703.44;104406;1273;61057;-88
2023/07/24 11:52:53;;;;;;;6.20;5.50;;;;;;;31.69;39.69;97697.10;104920;1279;61217;-84
2023/07/24 11:55:31;;;;;;;7.10;5.40;;;;;;;31.81;40.25;97697.61;105238;1271;73647;-86
2023/07/24 11:57:59;;;;;;;6.80;5.70;;;;;;;31.92;39.76;97710.95;105012;1273;74589;-87
2023/07/24 12:00:27;;;;;;;5.90;5.30;;;;;;;31.96;39.50;97719.71;104425;1274;71435;-87
2023/07/24 12:03:01;;;;;;;5.40;4.90;;;;;;;31.93;39.19;97716.69;104776;1272;61176;-85
2023/07/24 12:05:29;;;;;;;6.50;5.90;;;;;;;31.82;39.54;97715.23;105023;1274;61059;-86
2023/07/24 12:08:54;;;;;;;6.60;5.50;;;;;;;31.68;39.79;97722.34;105431;1273;74769;-85
2023/07/24 12:12:19;;;;;;;5.80;5.20;;;;;;;31.47;40.49;97721.55;104618;1276;75729;-85
2023/07/24 12:15:17;;;;;;;6.80;6.20;;;;;;;31.35;40.96;97714.09;103747;1279;73415;-83
2023/07/24 12:17:46;;;;;;;6.90;5.40;;;;;;;31.26;41.08;97711.52;104689;1280;61041;-83
2023/07/24 12:20:13;;;;;;;6.50;5.30;;;;;;;31.18;41.37;97711.37;103733;1278;61155;-83
2023/07/24 12:22:51;;;;;;;7.90;5.70;;;;;;;31.17;41.67;97709.17;103947;1279;73565;-83
2023/07/24 12:25:19;;;;;;;7.10;6.30;;;;;;;31.19;42.13;97717.27;105194;1283;74337;-83
2023/07/24 12:27:47;;;;;;;6.60;6.00;;;;;;;31.20;42.29;97713.19;104169;1282;72094;-83
2023/07/24 12:30:14;;;;;;;6.00;4.90;;;;;;;31.23;42.23;97715.49;103834;1279;61185;-84
2023/07/24 12:32:41;;;;;;;5.80;5.10;;;;;;;31.28;42.30;97734.09;103876;1279;61730;-82
2023/07/24 12:35:10;;;;;;;6.20;5.70;;;;;;;31.34;41.62;97734.95;103678;1285;72635;-85
2023/07/24 12:37:39;;;;;;;10.00;5.00;;;;;;;31.45;41.33;97727.42;104339;1282;73594;-83
2023/07/24 12:40:07;;;;;;;7.70;5.60;;;;;;;31.59;41.31;97719.80;103988;1279;72454;-83
2023/07/24 12:42:34;;;;;;;6.50;5.60;;;;;;;31.75;41.28;97714.94;105913;1280;61185;-84
2023/07/24 12:45:03;;;;;;;5.60;5.10;;;;;;;31.94;40.50;97707.52;103911;1280;61185;-83
2023/07/24 12:47:32;;;;;;;8.40;6.30;;;;;;;32.15;40.92;97699.31;103785;1285;72139;-83
2023/07/24 12:50:02;;;;;;;5.30;4.90;;;;;;;32.36;40.07;97707.00;104709;1279;73294;-84
2023/07/24 12:52:33;;;;;;;6.00;5.10;;;;;;;32.55;39.60;97698.42;104265;1274;72444;-84
2023/07/24 12:55:00;;;;;;;5.80;5.30;;;;;;;32.74;38.93;97710.73;104564;1276;61231;-83
2023/07/24 12:57:29;;;;;;;7.60;5.90;;;;;;;32.84;38.62;97695.39;105624;1273;61171;-83
2023/07/24 12:59:56;;;;;;;5.90;5.40;;;;;;;32.91;38.39;97698.21;106986;1274;72779;-83
2023/07/24 13:02:23;;;;;;;6.20;5.70;;;;;;;32.96;38.78;97681.11;105129;1274;74376;-85
2023/07/24 13:04:52;;;;;;;9.40;5.10;;;;;;;33.09;38.77;97682.68;104611;1274;71668;-84
2023/07/24 13:07:19;;;;;;;5.20;4.70;;;;;;;33.24;37.00;97681.51;105017;1274;61092;-83
2023/07/24 13:09:46;;;;;;;5.30;4.80;;;;;;;33.33;36.67;97664.63;104322;1272;61191;-83
2023/07/24 13:12:13;;;;;;;5.70;4.70;;;;;;;33.40;37.09;97664.60;104713;1272;71664;-83
2023/07/24 13:14:40;;;;;;;6.00;4.50;;;;;;;33.47;36.95;97660.34;104645;1273;73274;-84
2023/07/24 13:17:09;;;;;;;7.20;4.70;;;;;;;33.47;36.90;97666.13;104564;1276;73036;-82
2023/07/24 13:19:36;;;;;;;5.60;5.10;;;;;;;33.44;36.44;97658.55;105033;1273;61422;-82
2023/07/24 13:22:06;;;;;;;4.60;4.10;;;;;;;33.39;36.29;97654.30;104298;1274;61208;-82
2023/07/24 13:24:33;;;;;;;6.80;4.90;;;;;;;33.37;36.14;97646.89;104649;1273;73997;-84
2023/07/24 13:27:01;;;;;;;4.80;4.30;;;;;;;33.41;36.31;97636.59;104536;1276;72791;-85
2023/07/24 13:29:31;;;;;;;4.80;4.30;;;;;;;33.48;36.85;97630.28;104287;1277;72329;-83
2023/07/24 13:31:58;;;;;;;5.40;4.20;;;;;;;33.57;36.04;97642.62;104554;1274;61224;-84
2023/07/24 13:34:25;;;;;;;5.10;4.60;;;;;;;33.62;35.58;97647.69;104649;1272;61214;-83
2023/07/24 13:36:52;;;;;;;4.90;4.50;;;;;;;33.65;35.45;97648.48;104542;1274;74881;-83
2023/07/24 13:39:20;;;;;;;5.70;5.20;;;;;;;33.65;35.43;97650.81;104664;1276;74457;-84
2023/07/24 13:41:47;;;;;;;4.70;4.20;;;;;;;33.62;35.45;97654.36;105660;1271;72864;-85
2023/07/24 13:44:14;;;;;;;4.60;4.20;;;;;;;33.54;35.36;97648.00;105200;1274;61192;-85
2023/07/24 13:46:43;;;;;;;5.00;4.60;;;;;;;33.48;35.75;97634.11;104253;1274;61193;-85
2023/07/24 13:49:10;;;;;;;6.90;5.50;;;;;;;33.53;35.94;97633.02;104479;1276;71326;-86
2023/07/24 13:51:37;;;;;;;8.30;5.30;;;;;;;33.57;35.67;97634.04;104413;1273;74522;-86
2023/07/24 13:54:04;;;;;;;5.00;4.50;;;;;;;33.58;35.53;97638.20;104281;1274;71845;-87
2023/07/24 13:56:34;;;;;;;5.80;4.80;;;;;;;33.51;35.53;97630.91;104671;1273;61157;-84
2023/07/24 13:59:03;;;;;;;4.60;4.10;;;;;;;33.37;36.09;97619.79;105419;1273;61122;-86
2023/07/24 14:01:30;;;;;;;6.80;5.30;;;;;;;33.25;36.62;97617.08;105521;1273;71930;-85
2023/07/24 14:03:58;;;;;;;7.20;4.60;;;;;;;33.09;36.74;97613.36;105589;1274;73544;-85
2023/07/24 14:06:25;;;;;;;6.40;4.60;;;;;;;32.94;37.51;97610.85;105689;1278;71749;-84
2023/07/24 14:08:55;;;;;;;6.10;5.60;;;;;;;32.83;37.97;97616.02;105232;1273;61185;-84
2023/07/24 14:11:22;;;;;;;7.80;5.20;;;;;;;32.70;38.10;97621.67;105231;1278;61220;-85
2023/07/24 14:13:49;;;;;;;7.00;5.80;;;;;;;32.51;38.14;97638.32;104952;1273;73028;-85
2023/07/24 14:16:16;;;;;;;5.70;5.20;;;;;;;32.23;38.71;97635.00;105031;1274;74414;-84
2023/07/24 14:18:43;;;;;;;5.50;5.00;;;;;;;31.93;39.21;97636.71;105168;1274;72074;-83
2023/07/24 14:21:10;;;;;;;6.90;5.10;;;;;;;31.67;40.16;97638.73;105931;1276;61167;-83
2023/07/24 14:23:37;;;;;;;7.60;5.40;;;;;;;31.48;40.94;97636.57;106032;1273;60996;-84
2023/07/24 14:26:04;;;;;;;13.10;11.30;;;;;;;31.34;41.27;97635.85;105502;1278;71550;-83
2023/07/24 14:28:32;;;;;;;18.10;15.80;;;;;;;31.25;41.85;97634.95;104674;1274;75703;-84
2023/07/24 14:30:59;;;;;;;39.70;35.30;;;;;;;31.15;42.16;97629.19;104302;1273;73560;-83
2023/07/24 14:33:26;;;;;;;17.60;15.70;;;;;;;31.04;42.16;97622.52;104435;1274;61106;-83
2023/07/24 14:35:56;;;;;;;14.30;12.70;;;;;;;30.94;42.71;97612.80;104330;1273;61154;-85
2023/07/24 14:38:23;;;;;;;11.70;10.50;;;;;;;30.82;42.93;97606.50;104621;1274;73586;-84
2023/07/24 14:40:50;;;;;;;13.20;11.80;;;;;;;30.69;43.02;97605.98;104553;1273;74232;-85
2023/07/24 14:43:17;;;;;;;12.00;10.10;;;;;;;30.56;43.54;97599.60;104403;1279;72774;-83
2023/07/24 14:45:45;;;;;;;14.80;10.80;;;;;;;30.45;43.98;97598.55;105635;1273;61588;-84
2023/07/24 14:48:14;;;;;;;10.00;8.60;;;;;;;30.36;44.25;97597.02;105748;1273;61151;-84
2023/07/24 14:50:41;;;;;;;9.90;7.60;;;;;;;30.26;44.12;97589.93;104780;1276;71882;-83
2023/07/24 14:53:16;;;;;;;7.70;7.00;;;;;;;30.14;44.36;97591.52;104867;1279;74383;-84
2023/07/24 14:55:43;;;;;;;8.30;7.30;;;;;;;30.03;44.79;97595.60;104438;1276;72336;-84
2023/07/24 14:58:10;;;;;;;9.20;8.20;;;;;;;29.92;45.23;97600.09;104424;1274;61220;-85
2023/07/24 15:00:38;;;;;;;9.30;8.50;;;;;;;29.82;45.71;97597.48;104421;1271;61169;-82
2023/07/24 15:03:05;;;;;;;8.70;7.80;;;;;;;29.75;46.00;97585.52;104777;1272;74684;-83
2023/07/24 15:05:32;;;;;;;9.10;6.80;;;;;;;29.69;46.04;97584.26;104802;1276;73564;-85
2023/07/24 15:07:59;;;;;;;8.40;7.60;;;;;;;29.65;46.36;97582.25;105237;1274;73229;-84
2023/07/24 15:10:26;;;;;;;9.70;6.80;;;;;;;29.62;46.52;97575.39;106127;1273;61030;-86
2023/07/24 15:12:53;;;;;;;8.50;7.70;;;;;;;29.59;46.65;97574.85;106933;1272;61195;-85
2023/07/24 15:15:20;;;;;;;7.40;6.70;;;;;;;29.56;46.89;97576.02;105757;1273;73361;-84
2023/07/24 15:17:47;;;;;;;7.50;5.80;;;;;;;29.53;47.05;97568.26;104828;1276;75346;-87
2023/07/24 15:20:15;;;;;;;7.80;7.20;;;;;;;29.48;47.17;97562.26;105801;1274;71007;-85
2023/07/24 15:22:43;;;;;;;7.40;6.70;;;;;;;29.44;47.51;97559.37;104321;1273;61144;-85
2023/07/24 15:25:10;;;;;;;7.70;7.00;;;;;;;29.40;47.47;97557.08;104246;1274;61119;-85
2023/07/24 15:27:37;;;;;;;8.30;7.50;;;;;;;29.33;47.70;97558.05;104272;1276;73924;-86
2023/07/24 15:30:05;;;;;;;8.90;8.10;;;;;;;29.25;47.93;97553.23;104188;1273;74973;-85
2023/07/24 15:32:32;;;;;;;10.80;8.90;;;;;;;29.15;47.97;97538.67;104185;1279;72688;-85
2023/07/24 15:35:00;;;;;;;9.90;8.70;;;;;;;29.10;48.13;97535.90;104555;1276;61186;-85
2023/07/24 15:37:29;;;;;;;9.10;8.30;;;;;;;29.05;48.31;97529.56;104439;1270;61080;-85
2023/07/24 15:39:57;;;;;;;10.00;8.80;;;;;;;28.99;48.55;97514.70;104337;1271;74034;-87
2023/07/24 15:42:24;;;;;;;8.80;7.90;;;;;;;28.94;48.52;97508.29;104666;1276;73092;-86
2023/07/24 15:44:52;;;;;;;9.20;7.40;;;;;;;28.87;48.55;97506.82;104481;1271;71535;-84
2023/07/24 15:47:19;;;;;;;9.10;7.10;;;;;;;28.78;48.47;97510.14;104419;1270;61202;-85
2023/07/24 15:49:46;;;;;;;9.90;8.00;;;;;;;28.70;48.78;97512.41;104364;1277;61153;-87
2023/07/24 15:52:15;;;;;;;10.00;7.60;;;;;;;28.62;48.99;97514.70;104706;1276;72591;-87
2023/07/24 15:54:42;;;;;;;8.90;7.20;;;;;;;28.56;49.06;97516.95;104506;1276;75058;-86
2023/07/24 15:57:09;;;;;;;13.40;6.60;;;;;;;28.48;49.28;97517.34;104658;1271;72355;-86
2023/07/24 15:59:36;;;;;;;7.90;6.70;;;;;;;28.41;49.14;97519.29;104594;1271;61137;-85
2023/07/24 16:02:05;;;;;;;7.70;6.70;;;;;;;28.34;49.32;97515.09;107284;1270;61076;-85
2023/07/24 16:04:32;;;;;;;6.90;6.20;;;;;;;28.28;49.39;97505.41;108249;1270;73816;-85
2023/07/24 16:06:59;;;;;;;8.00;7.10;;;;;;;28.22;49.64;97504.30;108183;1270;72850;-86
2023/07/24 16:09:26;;;;;;;7.90;6.80;;;;;;;28.18;49.71;97502.25;108174;1270;73978;-85
2023/07/24 16:11:53;;;;;;;7.90;7.10;;;;;;;28.14;49.77;97495.62;107388;1270;61202;-85
2023/07/24 16:14:20;;;;;;;9.20;6.50;;;;;;;28.12;49.83;97491.32;106094;1270;61133;-84
2023/07/24 16:16:47;;;;;;;7.20;6.50;;;;;;;28.10;49.81;97487.30;106741;1270;72327;-84
2023/07/24 16:19:17;;;;;;;7.30;6.60;;;;;;;28.09;49.79;97482.20;107678;1270;72968;-84
2023/07/24 16:21:45;;;;;;;8.60;7.70;;;;;;;28.07;49.91;97482.20;107503;1270;71395;-85
2023/07/24 16:24:12;;;;;;;7.40;6.80;;;;;;;28.04;49.75;97483.78;106869;1270;60004;-85
2023/07/24 16:26:39;;;;;;;7.70;7.00;;;;;;;28.01;50.12;97484.67;104469;1271;61130;-87
2023/07/24 16:29:06;;;;;;;8.30;6.70;;;;;;;28.00;49.87;97487.69;104512;1273;73788;-87
2023/07/24 16:31:33;;;;;;;8.00;6.90;;;;;;;27.99;50.06;97490.14;104247;1273;76081;-85
2023/07/24 16:34:02;;;;;;;8.90;7.80;;;;;;;27.96;50.07;97487.49;104622;1271;73320;-84
2023/07/24 16:36:35;;;;;;;11.10;9.90;;;;;;;27.96;50.32;97480.84;104491;1271;61119;-82
2023/07/24 16:39:03;;;;;;;9.00;8.10;;;;;;;27.93;50.06;97481.75;104299;1270;61067;-84
2023/07/24 16:41:32;;;;;;;8.60;7.40;;;;;;;27.90;49.95;97479.46;104608;1276;73063;-83
2023/07/24 16:44:00;;;;;;;9.90;7.60;;;;;;;27.87;50.07;97480.34;104251;1276;73409;-84
2023/07/24 16:46:29;;;;;;;9.20;7.70;;;;;;;27.84;50.14;97477.29;104258;1276;72842;-84
2023/07/24 16:48:56;;;;;;;9.50;8.50;;;;;;;27.82;50.15;97476.31;104301;1276;61151;-84
2023/07/24 16:51:23;;;;;;;8.70;7.90;;;;;;;27.80;50.32;97468.23;104568;1284;61278;-83
2023/07/24 16:53:51;;;;;;;8.90;8.20;;;;;;;27.78;50.31;97460.58;104495;1270;74002;-84
2023/07/24 16:56:18;;;;;;;9.80;8.00;;;;;;;27.77;50.64;97455.23;104517;1273;74349;-83
2023/07/24 16:58:45;;;;;;;8.70;7.90;;;;;;;27.78;50.50;97444.21;104446;1276;72638;-83
2023/07/24 17:01:12;;;;;;;9.00;8.20;;;;;;;27.81;50.83;97435.49;104566;1276;61116;-84
2023/07/24 17:03:39;;;;;;;9.00;8.10;;;;;;;27.85;50.70;97432.02;104476;1274;61111;-84
2023/07/24 17:06:06;;;;;;;9.50;8.60;;;;;;;27.90;50.76;97433.33;104241;1276;73915;-85
2023/07/24 17:08:34;;;;;;;10.40;8.70;;;;;;;27.92;50.82;97431.63;104253;1274;74507;-83
2023/07/24 17:11:01;;;;;;;9.50;8.40;;;;;;;27.94;50.70;97434.83;104193;1277;71151;-83
2023/07/24 17:13:29;;;;;;;8.70;7.90;;;;;;;27.95;50.68;97433.13;104147;1273;61055;-83
2023/07/24 17:15:56;;;;;;;9.00;7.80;;;;;;;27.94;50.86;97433.95;104240;1277;61198;-84
2023/07/24 17:18:23;;;;;;;9.40;8.50;;;;;;;27.93;50.80;97435.73;104064;1273;74074;-83
2023/07/24 17:20:50;;;;;;;9.00;8.10;;;;;;;27.92;50.82;97430.90;104280;1274;74473;-83
2023/07/24 17:23:18;;;;;;;9.70;8.10;;;;;;;27.92;50.92;97424.39;104260;1273;73823;-84
2023/07/24 17:25:46;;;;;;;9.60;8.20;;;;;;;27.90;50.95;97419.23;104333;1274;61138;-82
2023/07/24 17:28:13;;;;;;;12.40;8.20;;;;;;;27.88;50.61;97411.55;104431;1273;61102;-86
2023/07/24 17:30:41;;;;;;;11.80;10.60;;;;;;;27.85;50.88;97415.69;104251;1273;72584;-86
2023/07/24 17:33:08;;;;;;;19.60;15.40;;;;;;;27.83;50.89;97412.73;104310;1278;74325;-85
2023/07/24 17:35:38;;;;;;;17.30;14.60;;;;;;;27.81;51.55;97413.42;105036;1276;74476;-86
2023/07/24 17:38:05;;;;;;;12.80;9.70;;;;;;;27.78;51.81;97406.73;104290;1276;61225;-86
2023/07/24 17:40:36;;;;;;;10.30;9.30;;;;;;;27.73;51.89;97401.63;104444;1273;61081;-87
2023/07/24 17:43:07;;;;;;;13.90;10.30;;;;;;;27.71;53.42;97401.35;104195;1280;73108;-87
2023/07/24 17:45:36;;;;;;;12.30;8.90;;;;;;;27.67;54.30;97408.75;104462;1274;74486;-88
2023/07/24 17:48:03;;;;;;;11.40;8.80;;;;;;;27.63;54.28;97410.15;104078;1274;74650;-86
2023/07/24 17:50:33;;;;;;;9.60;8.60;;;;;;;27.58;54.86;97413.84;104580;1273;61092;-86
2023/07/24 17:53:01;;;;;;;10.50;9.50;;;;;;;27.53;55.45;97413.39;104265;1277;61048;-88
2023/07/24 17:55:28;;;;;;;11.30;9.20;;;;;;;27.46;55.36;97419.08;104289;1279;74781;-87
2023/07/24 17:57:55;;;;;;;10.60;9.60;;;;;;;27.38;55.63;97420.05;104361;1278;74550;-85
2023/07/24 18:00:23;;;;;;;10.60;9.60;;;;;;;27.30;55.85;97418.16;104228;1274;72662;-86
2023/07/24 18:02:52;;;;;;;11.10;10.00;;;;;;;27.21;56.33;97415.38;104174;1275;61644;-86
2023/07/24 18:05:19;;;;;;;10.90;9.50;;;;;;;27.15;56.90;97413.31;104397;1275;61258;-86
2023/07/24 18:07:53;;;;;;;13.00;10.00;;;;;;;27.06;57.20;97410.92;105450;1278;73116;-85
2023/07/24 18:10:41;;;;;;;11.00;9.90;;;;;;;26.98;57.03;97408.00;104149;1279;75321;-86
2023/07/24 18:13:08;;;;;;;12.30;11.10;;;;;;;26.89;57.74;97408.55;104126;1273;71329;-90
2023/07/24 18:15:36;;;;;;;12.60;11.50;;;;;;;26.81;57.78;97409.15;104186;1273;60969;-86
2023/07/24 18:18:03;;;;;;;11.60;10.70;;;;;;;26.73;58.28;97407.35;104103;1279;61170;-85
2023/07/24 18:20:30;;;;;;;13.00;11.70;;;;;;;26.66;58.72;97404.31;104104;1279;73419;-87
2023/07/24 18:22:58;;;;;;;12.80;11.60;;;;;;;26.60;58.92;97399.03;104166;1279;74060;-85
2023/07/24 18:25:25;;;;;;;13.10;11.30;;;;;;;26.53;59.25;97390.27;104096;1279;74193;-85
2023/07/24 18:27:52;;;;;;;12.70;11.40;;;;;;;26.48;59.89;97389.69;104013;1282;61202;-85
2023/07/24 18:30:23;;;;;;;12.90;11.20;;;;;;;26.43;60.41;97392.26;104166;1272;61275;-86
2023/07/24 18:32:51;;;;;;;12.00;10.90;;;;;;;26.37;60.42;97398.00;104181;1279;72955;-85
2023/07/24 18:35:18;;;;;;;14.00;11.70;;;;;;;26.30;60.94;97396.48;104234;1279;75833;-85
2023/07/24 18:37:46;;;;;;;12.30;11.10;;;;;;;26.25;61.64;97396.92;104244;1273;73955;-86
2023/07/24 18:40:41;;;;;;;12.80;11.50;;;;;;;26.19;63.32;97391.50;104262;1273;61070;-84
2023/07/24 18:43:08;;;;;;;12.40;11.20;;;;;;;26.10;63.16;97392.96;104423;1278;61211;-85
2023/07/24 18:45:35;;;;;;;18.90;12.90;;;;;;;26.03;63.02;97396.27;105336;1279;73893;-88
2023/07/24 18:48:02;;;;;;;14.50;12.50;;;;;;;25.95;63.47;97394.23;104462;1279;75536;-85
2023/07/24 18:50:30;;;;;;;17.00;13.10;;;;;;;25.88;64.22;97393.02;104435;1279;72872;-86
2023/07/24 18:52:57;;;;;;;16.50;12.60;;;;;;;25.81;64.69;97393.56;104310;1274;61140;-85
2023/07/24 18:55:25;;;;;;;12.40;11.20;;;;;;;25.75;64.49;97399.64;104653;1274;61125;-86
2023/07/24 18:57:52;;;;;;;14.50;12.20;;;;;;;25.70;65.30;97398.39;104941;1277;73039;-85
2023/07/24 19:00:19;;;;;;;13.90;12.40;;;;;;;25.66;66.18;97399.70;104791;1277;75288;-85
2023/07/24 19:02:46;;;;;;;13.20;11.80;;;;;;;25.61;66.87;97401.33;104949;1264;72146;-88
2023/07/24 19:05:14;;;;;;;13.70;12.30;;;;;;;25.57;67.47;97397.86;104863;1273;61147;-85
2023/07/24 19:07:41;;;;;;;14.50;13.10;;;;;;;25.54;68.53;97396.27;104663;1276;61211;-86
2023/07/24 19:10:10;;;;;;;17.70;13.60;;;;;;;25.50;69.05;97394.27;104692;1276;72007;-86
2023/07/24 19:12:39;;;;;;;15.00;13.50;;;;;;;25.47;69.42;97395.36;104645;1276;75717;-85
2023/07/24 19:15:07;;;;;;;14.00;12.50;;;;;;;25.43;69.91;97394.27;104735;1271;71510;-84
2023/07/24 19:17:34;;;;;;;17.80;12.30;;;;;;;25.39;69.07;97394.09;104714;1271;61182;-86
2023/07/24 19:20:03;;;;;;;13.70;11.60;;;;;;;25.36;68.33;97385.42;104983;1271;61169;-86
2023/07/24 19:22:30;;;;;;;13.10;11.80;;;;;;;25.34;66.99;97382.82;104761;1270;73732;-88
2023/07/24 19:30:08;;;;;;;11.80;10.30;;;;;;;25.28;63.49;97373.21;103680;1288;71476;-87
2023/07/24 19:32:35;;;;;;;12.20;10.40;;;;;;;25.27;63.32;97372.61;103305;1288;61561;-85
2023/07/24 19:35:11;;;;;;;11.20;10.20;;;;;;;25.28;62.74;97368.02;103159;1288;61251;-87
2023/07/24 19:38:10;;;;;;;11.70;10.00;;;;;;;25.30;61.71;97360.48;103444;1285;72350;-86
2023/07/24 19:40:37;;;;;;;12.40;10.30;;;;;;;25.33;60.96;97355.42;103473;1283;73595;-86
2023/07/24 19:43:05;;;;;;;11.30;10.20;;;;;;;25.37;60.68;97345.15;103609;1283;72477;-86
2023/07/24 19:45:38;;;;;;;11.10;10.10;;;;;;;25.41;60.61;97341.94;103586;1285;61237;-87
2023/07/24 19:48:05;;;;;;;11.20;10.20;;;;;;;25.44;60.89;97331.53;103665;1283;61195;-84
2023/07/24 19:50:32;;;;;;;11.20;9.40;;;;;;;25.46;60.42;97329.98;103753;1283;75105;-86
2023/07/24 19:52:59;;;;;;;10.80;9.70;;;;;;;25.48;60.30;97321.05;103822;1282;73875;-86
2023/07/24 19:55:29;;;;;;;9.40;8.60;;;;;;;25.50;60.21;97319.77;103782;1282;73626;-86
2023/07/24 19:57:56;;;;;;;12.00;10.10;;;;;;;25.51;59.80;97310.02;103536;1282;61195;-85
2023/07/24 20:00:23;;;;;;;9.80;8.90;;;;;;;25.51;59.81;97305.02;103983;1283;61198;-85
2023/07/24 20:02:55;;;;;;;11.00;9.50;;;;;;;25.53;59.84;97296.22;103834;1282;72597;-86
2023/07/24 20:05:22;;;;;;;9.50;8.60;;;;;;;25.52;59.69;97292.41;104304;1276;74647;-86
2023/07/24 20:07:49;;;;;;;10.60;9.20;;;;;;;25.53;59.70;97283.14;104802;1271;72698;-85
2023/07/24 20:10:17;;;;;;;10.00;9.00;;;;;;;25.52;59.60;97280.70;104630;1271;61328;-84
2023/07/24 20:12:44;;;;;;;10.30;9.10;;;;;;;25.52;59.53;97283.33;104893;1270;60986;-85
2023/07/24 20:15:15;;;;;;;10.00;9.00;;;;;;;25.51;59.44;97278.81;104640;1273;72367;-86
2023/07/24 20:17:43;;;;;;;12.90;9.70;;;;;;;25.51;59.60;97270.27;104536;1275;75118;-88
2023/07/24 20:20:10;;;;;;;9.60;8.70;;;;;;;25.50;59.56;97265.25;104586;1271;71475;-85
2023/07/24 20:22:37;;;;;;;12.20;9.20;;;;;;;25.49;59.70;97263.98;104592;1270;61102;-86
2023/07/24 20:25:08;;;;;;;9.80;8.90;;;;;;;25.47;59.59;97264.19;104536;1270;61199;-85
2023/07/24 20:27:35;;;;;;;10.30;9.00;;;;;;;25.45;59.81;97256.39;104563;1277;73600;-86
2023/07/24 20:30:06;;;;;;;10.40;9.40;;;;;;;25.41;59.68;97255.77;104632;1273;74240;-86
2023/07/24 20:32:35;;;;;;;9.30;8.40;;;;;;;25.39;59.75;97256.16;104552;1277;72662;-86
2023/07/24 20:35:02;;;;;;;10.30;8.90;;;;;;;25.36;60.08;97251.48;104564;1271;61154;-85
2023/07/24 20:37:29;;;;;;;10.00;7.90;;;;;;;25.34;59.99;97252.73;104531;1271;61126;-88
2023/07/24 20:39:56;;;;;;;9.10;8.30;;;;;;;25.31;60.24;97253.47;104625;1271;73890;-86
2023/07/24 20:42:24;;;;;;;9.30;8.20;;;;;;;25.28;60.35;97245.84;104551;1271;75063;-86
2023/07/24 20:44:52;;;;;;;10.70;8.80;;;;;;;25.25;60.37;97239.29;104499;1271;73938;-86
2023/07/24 20:47:22;;;;;;;10.10;8.40;;;;;;;25.22;60.02;97233.33;104536;1271;61095;-85
2023/07/24 20:49:49;;;;;;;10.10;7.80;;;;;;;25.19;59.73;97235.05;104477;1271;61085;-86
2023/07/24 20:52:16;;;;;;;9.10;8.30;;;;;;;25.17;59.39;97229.31;104592;1271;73691;-87
2023/07/24 20:54:43;;;;;;;9.60;8.40;;;;;;;25.16;59.00;97214.41;104639;1270;73275;-86
2023/07/24 20:57:10;;;;;;;9.80;7.20;;;;;;;25.16;58.93;97207.98;104622;1277;71121;-85
2023/07/24 20:59:38;;;;;;;8.60;7.70;;;;;;;25.18;58.94;97200.66;104430;1276;61207;-86
2023/07/24 21:02:05;;;;;;;9.50;7.80;;;;;;;25.19;58.70;97194.21;104521;1276;61163;-86
2023/07/24 21:04:34;;;;;;;9.40;7.70;;;;;;;25.20;58.69;97196.61;104527;1275;73904;-86
2023/07/24 21:07:01;;;;;;;9.40;8.60;;;;;;;25.22;58.52;97191.83;104563;1271;73369;-85
2023/07/24 21:09:32;;;;;;;9.30;8.10;;;;;;;25.23;58.48;97194.84;104523;1271;75022;-86
2023/07/24 21:11:59;;;;;;;9.90;8.10;;;;;;;25.25;58.30;97195.45;104563;1274;61344;-87
2023/07/24 21:14:26;;;;;;;10.40;7.60;;;;;;;25.28;58.22;97203.44;104449;1271;61094;-84
2023/07/24 21:16:53;;;;;;;9.90;8.40;;;;;;;25.30;58.14;97209.77;104664;1270;73827;-85
2023/07/24 21:19:20;;;;;;;8.90;8.10;;;;;;;25.31;58.01;97203.93;104763;1273;74041;-86
2023/07/24 21:21:47;;;;;;;9.20;7.60;;;;;;;25.32;57.76;97216.13;104603;1271;73367;-86
2023/07/24 21:24:14;;;;;;;9.60;7.90;;;;;;;25.34;57.59;97220.62;104615;1269;61173;-87
2023/07/24 21:26:41;;;;;;;8.80;7.80;;;;;;;25.35;57.50;97230.13;104606;1273;61230;-86
2023/07/24 21:29:08;;;;;;;9.20;8.10;;;;;;;25.37;57.45;97229.52;104584;1271;72926;-87
2023/07/24 21:31:36;;;;;;;8.70;7.90;;;;;;;25.39;57.22;97235.01;104572;1271;73142;-87
2023/07/24 21:34:03;;;;;;;9.30;8.50;;;;;;;25.41;57.13;97232.71;104605;1271;72487;-87
2023/07/24 21:36:31;;;;;;;9.90;8.50;;;;;;;25.44;56.94;97245.98;104614;1271;61169;-86
2023/07/24 21:38:58;;;;;;;8.80;7.30;;;;;;;25.46;56.62;97243.48;104555;1271;61150;-88
2023/07/24 21:41:25;;;;;;;8.90;8.10;;;;;;;25.50;56.64;97237.69;104639;1271;73708;-86
2023/07/24 21:43:55;;;;;;;9.70;8.50;;;;;;;25.53;56.45;97234.23;105701;1270;75191;-86
2023/07/24 21:46:25;;;;;;;10.30;8.00;;;;;;;25.57;56.49;97233.83;107317;1271;71541;-84
2023/07/24 21:48:52;;;;;;;11.40;8.10;;;;;;;25.59;56.31;97230.34;107748;1270;61195;-85
2023/07/24 21:51:19;;;;;;;10.90;9.40;;;;;;;25.63;56.29;97230.75;104928;1271;61010;-85
2023/07/24 21:53:46;;;;;;;11.30;10.10;;;;;;;25.65;56.37;97228.65;104768;1271;73221;-86
2023/07/24 21:56:13;;;;;;;11.20;10.10;;;;;;;25.67;56.18;97223.96;104760;1270;73244;-86
2023/07/24 21:58:40;;;;;;;10.70;9.70;;;;;;;25.68;56.07;97219.81;104620;1271;73153;-88
2023/07/24 22:01:07;;;;;;;10.60;9.60;;;;;;;25.69;55.89;97220.42;104294;1276;61224;-86
2023/07/24 22:03:34;;;;;;;9.80;8.90;;;;;;;25.70;55.92;97211.41;104583;1274;61182;-87
2023/07/24 22:06:01;;;;;;;12.00;10.00;;;;;;;25.71;55.93;97203.69;104451;1276;73357;-86
2023/07/24 22:08:33;;;;;;;10.30;8.90;;;;;;;25.71;55.76;97206.83;104333;1271;73414;-86
2023/07/24 22:11:00;;;;;;;9.60;8.80;;;;;;;25.71;55.99;97183.85;104557;1276;72705;-86
2023/07/24 22:13:27;;;;;;;10.00;8.90;;;;;;;25.72;56.14;97182.71;104523;1270;61246;-85
2023/07/24 22:15:54;;;;;;;10.00;9.10;;;;;;;25.71;56.48;97192.52;104247;1271;60987;-85
2023/07/24 22:18:21;;;;;;;9.80;8.80;;;;;;;25.70;56.33;97185.73;104574;1276;73089;-84
2023/07/24 22:20:48;;;;;;;10.50;8.90;;;;;;;25.69;55.98;97195.56;104280;1276;75839;-84
2023/07/24 22:23:15;;;;;;;9.90;9.00;;;;;;;25.68;56.29;97191.64;105201;1276;71888;-86
2023/07/24 22:25:43;;;;;;;9.50;8.50;;;;;;;25.68;56.07;97197.44;105162;1276;61191;-86
2023/07/24 22:28:10;;;;;;;9.90;9.00;;;;;;;25.67;56.10;97207.48;104533;1273;61069;-87
2023/07/24 22:30:37;;;;;;;12.90;9.00;;;;;;;25.67;55.80;97228.86;104433;1276;72441;-87